KRRL

Merrill Municipal Airport

Merrill, Wisconsin, USA
METAR KRRL 121815Z AUTO 09007KT 7SM OVC010 00/M02 A2968 RMK AO2 T10031021 TSNO
Observed Flight Rules
Dec-12 @ 18:15 UTC (34 minutes ago) Marginal Visual Flight Rules
Wind Visibility Clouds
90° at 7 knots 7 miles
  • Overcast at 1,000' AGL
Temperatures Readings
Current -0°C / 32°F
Dewpoint -2°C / 28°F
Humidity 87%
Altimeter 29.68" Hg
Pressure 1005 hPa
Elevation 401
METAR KRRL 121815Z AUTO 09007KT 7SM OVC010 00/M02 A2968 RMK AO2 T10031021 TSNO
Observed Flight Rules
Dec-12 @ 18:15 UTC
(34 minutes ago)
MVFR
Wind Visibility
90° at 7 knots 7 miles
Clouds
  • Overcast at 1,000' AGL
Temperature Dewpoint
-0°C / 32°F -2°C / 28°F
Humidity Altimeter Pressure
87% 29.68" Hg 1005 hPa